sensor_id;sensor_type;location;lat;lon;timestamp;pressure;altitude;pressure_sealevel;temperature;humidity
65897;BME280;52677;50.898;10.854;2024-01-30T00:01:27;99799.69;;;-1.58;100.00
65897;BME280;52677;50.898;10.854;2024-01-30T00:03:27;99788.81;;;-1.58;100.00
65897;BME280;52677;50.898;10.854;2024-01-30T00:05:28;99798.34;;;-1.55;100.00
65897;BME280;52677;50.898;10.854;2024-01-30T00:07:28;99796.44;;;-1.55;100.00
65897;BME280;52677;50.898;10.854;2024-01-30T00:09:28;99799.44;;;-1.56;100.00
65897;BME280;52677;50.898;10.854;2024-01-30T00:11:29;99797.53;;;-1.56;100.00
65897;BME280;52677;50.898;10.854;2024-01-30T00:13:29;99795.34;;;-1.59;100.00
65897;BME280;52677;50.898;10.854;2024-01-30T00:15:29;99799.44;;;-1.56;100.00
65897;BME280;52677;50.898;10.854;2024-01-30T00:17:30;99800.50;;;-1.57;100.00
65897;BME280;52677;50.898;10.854;2024-01-30T00:19:31;99784.78;;;-1.55;100.00
65897;BME280;52677;50.898;10.854;2024-01-30T00:21:32;99795.59;;;-1.60;100.00
65897;BME280;52677;50.898;10.854;2024-01-30T00:23:32;99797.22;;;-1.59;100.00
65897;BME280;52677;50.898;10.854;2024-01-30T00:25:32;99793.44;;;-1.63;100.00
65897;BME280;52677;50.898;10.854;2024-01-30T00:27:33;99807.00;;;-1.63;100.00
65897;BME280;52677;50.898;10.854;2024-01-30T00:29:33;99796.66;;;-1.66;100.00
65897;BME280;52677;50.898;10.854;2024-01-30T00:31:35;99789.09;;;-1.64;100.00
65897;BME280;52677;50.898;10.854;2024-01-30T00:33:35;99792.63;;;-1.64;100.00
65897;BME280;52677;50.898;10.854;2024-01-30T00:35:36;99793.44;;;-1.63;100.00
65897;BME280;52677;50.898;10.854;2024-01-30T00:37:36;99782.84;;;-1.60;100.00
65897;BME280;52677;50.898;10.854;2024-01-30T00:39:36;99782.84;;;-1.60;100.00
65897;BME280;52677;50.898;10.854;2024-01-30T00:41:37;99791.53;;;-1.63;100.00
65897;BME280;52677;50.898;10.854;2024-01-30T00:43:37;99769.28;;;-1.65;100.00
65897;BME280;52677;50.898;10.854;2024-01-30T00:45:38;99776.06;;;-1.62;100.00
65897;BME280;52677;50.898;10.854;2024-01-30T00:47:38;99795.88;;;-1.62;100.00
65897;BME280;52677;50.898;10.854;2024-01-30T00:49:38;99783.66;;;-1.59;100.00
65897;BME280;52677;50.898;10.854;2024-01-30T00:51:39;99774.72;;;-1.60;100.00
65897;BME280;52677;50.898;10.854;2024-01-30T00:53:39;99778.78;;;-1.57;100.00
65897;BME280;52677;50.898;10.854;2024-01-30T00:55:39;99776.59;;;-1.60;100.00
65897;BME280;52677;50.898;10.854;2024-01-30T00:57:40;99765.75;;;-1.60;100.00
65897;BME280;52677;50.898;10.854;2024-01-30T00:59:40;99756.53;;;-1.64;100.00
65897;BME280;52677;50.898;10.854;2024-01-30T01:01:40;99770.63;;;-1.62;100.00
65897;BME280;52677;50.898;10.854;2024-01-30T01:03:41;99772.25;;;-1.61;100.00
65897;BME280;52677;50.898;10.854;2024-01-30T01:05:43;99767.38;;;-1.64;100.00
65897;BME280;52677;50.898;10.854;2024-01-30T01:07:44;99760.88;;;-1.63;100.00
65897;BME280;52677;50.898;10.854;2024-01-30T01:09:45;99766.56;;;-1.60;100.00
65897;BME280;52677;50.898;10.854;2024-01-30T01:11:45;99758.69;;;-1.61;100.00
65897;BME280;52677;50.898;10.854;2024-01-30T01:13:46;99767.69;;;-1.56;100.00
65897;BME280;52677;50.898;10.854;2024-01-30T01:15:46;99768.50;;;-1.55;100.00
65897;BME280;52677;50.898;10.854;2024-01-30T01:17:46;99760.63;;;-1.57;100.00
65897;BME280;52677;50.898;10.854;2024-01-30T01:19:46;99770.63;;;-1.57;100.00
65897;BME280;52677;50.898;10.854;2024-01-30T01:21:47;99768.19;;;-1.59;100.00
65897;BME280;52677;50.898;10.854;2024-01-30T01:23:47;99767.91;;;-1.62;100.00
65897;BME280;52677;50.898;10.854;2024-01-30T01:25:47;99769.00;;;-1.63;100.00
65897;BME280;52677;50.898;10.854;2024-01-30T01:27:48;99768.72;;;-1.67;100.00
65897;BME280;52677;50.898;10.854;2024-01-30T01:29:52;99767.34;;;-1.70;100.00
65897;BME280;52677;50.898;10.854;2024-01-30T01:31:52;99770.59;;;-1.67;100.00
65897;BME280;52677;50.898;10.854;2024-01-30T01:33:52;99777.44;;;-1.65;100.00
65897;BME280;52677;50.898;10.854;2024-01-30T01:35:53;99771.44;;;-1.62;100.00
65897;BME280;52677;50.898;10.854;2024-01-30T01:37:54;99760.88;;;-1.63;100.00
65897;BME280;52677;50.898;10.854;2024-01-30T01:39:59;99761.13;;;-1.60;100.00
65897;BME280;52677;50.898;10.854;2024-01-30T01:42:00;99760.31;;;-1.60;100.00
65897;BME280;52677;50.898;10.854;2024-01-30T01:44:00;99758.69;;;-1.61;100.00
65897;BME280;52677;50.898;10.854;2024-01-30T01:46:01;99757.34;;;-1.64;100.00
65897;BME280;52677;50.898;10.854;2024-01-30T01:48:01;99758.13;;;-1.68;100.00
65897;BME280;52677;50.898;10.854;2024-01-30T01:50:02;99754.59;;;-1.69;100.00
65897;BME280;52677;50.898;10.854;2024-01-30T01:52:04;99768.97;;;-1.74;100.00
65897;BME280;52677;50.898;10.854;2024-01-30T01:54:04;99772.75;;;-1.75;100.00
65897;BME280;52677;50.898;10.854;2024-01-30T01:56:08;99763.53;;;-1.79;100.00
65897;BME280;52677;50.898;10.854;2024-01-30T01:58:09;99764.06;;;-1.82;100.00
65897;BME280;52677;50.898;10.854;2024-01-30T02:00:12;99770.53;;;-1.88;100.00
65897;BME280;52677;50.898;10.854;2024-01-30T02:02:12;99770.28;;;-1.86;100.00
65897;BME280;52677;50.898;10.854;2024-01-30T02:04:16;99773.53;;;-1.84;100.00
65897;BME280;52677;50.898;10.854;2024-01-30T02:06:17;99768.38;;;-1.86;100.00
65897;BME280;52677;50.898;10.854;2024-01-30T02:08:17;99763.50;;;-1.89;100.00
65897;BME280;52677;50.898;10.854;2024-01-30T02:10:17;99758.88;;;-1.88;100.00
65897;BME280;52677;50.898;10.854;2024-01-30T02:12:18;99761.88;;;-1.85;100.00
65897;BME280;52677;50.898;10.854;2024-01-30T02:14:18;99757.78;;;-1.87;100.00
65897;BME280;52677;50.898;10.854;2024-01-30T02:16:19;99755.09;;;-1.87;100.00
65897;BME280;52677;50.898;10.854;2024-01-30T02:18:20;99769.72;;;-1.88;100.00
65897;BME280;52677;50.898;10.854;2024-01-30T02:20:23;99756.16;;;-1.88;100.00
65897;BME280;52677;50.898;10.854;2024-01-30T02:22:25;99747.44;;;-1.90;100.00
65897;BME280;52677;50.898;10.854;2024-01-30T02:24:25;99760.50;;;-1.87;100.00
65897;BME280;52677;50.898;10.854;2024-01-30T02:26:25;99749.94;;;-1.89;100.00
65897;BME280;52677;50.898;10.854;2024-01-30T02:28:26;99749.94;;;-1.89;100.00
65897;BME280;52677;50.898;10.854;2024-01-30T02:30:27;99745.59;;;-1.90;100.00
65897;BME280;52677;50.898;10.854;2024-01-30T02:32:27;99743.13;;;-1.91;100.00
65897;BME280;52677;50.898;10.854;2024-01-30T02:34:28;99743.94;;;-1.96;100.00
65897;BME280;52677;50.898;10.854;2024-01-30T02:36:28;99746.09;;;-1.98;100.00
65897;BME280;52677;50.898;10.854;2024-01-30T02:38:28;99746.06;;;-2.03;100.00
65897;BME280;52677;50.898;10.854;2024-01-30T02:40:29;99746.06;;;-2.03;100.00
65897;BME280;52677;50.898;10.854;2024-01-30T02:42:29;99745.78;;;-2.02;100.00
65897;BME280;52677;50.898;10.854;2024-01-30T02:44:29;99736.56;;;-2.06;100.00
65897;BME280;52677;50.898;10.854;2024-01-30T02:46:29;99738.19;;;-2.05;100.00
65897;BME280;52677;50.898;10.854;2024-01-30T02:48:30;99733.84;;;-2.06;100.00
65897;BME280;52677;50.898;10.854;2024-01-30T02:50:30;99734.09;;;-2.07;100.00
65897;BME280;52677;50.898;10.854;2024-01-30T02:52:30;99728.13;;;-2.09;100.00
65897;BME280;52677;50.898;10.854;2024-01-30T02:54:31;99724.88;;;-2.11;100.00
65897;BME280;52677;50.898;10.854;2024-01-30T02:56:31;99724.31;;;-2.13;100.00
65897;BME280;52677;50.898;10.854;2024-01-30T02:58:31;99724.03;;;-2.17;100.00
65897;BME280;52677;50.898;10.854;2024-01-30T03:00:32;99723.75;;;-2.20;100.00
65897;BME280;52677;50.898;10.854;2024-01-30T03:02:32;99724.25;;;-2.23;100.00
65897;BME280;52677;50.898;10.854;2024-01-30T03:04:33;99720.50;;;-2.22;100.00
65897;BME280;52677;50.898;10.854;2024-01-30T03:06:33;99716.44;;;-2.20;100.00
65897;BME280;52677;50.898;10.854;2024-01-30T03:08:34;99721.59;;;-2.18;100.00
65897;BME280;52677;50.898;10.854;2024-01-30T03:10:35;99717.28;;;-2.14;100.00
65897;BME280;52677;50.898;10.854;2024-01-30T03:12:35;99718.38;;;-2.10;100.00
65897;BME280;52677;50.898;10.854;2024-01-30T03:14:36;99714.00;;;-2.16;100.00
65897;BME280;52677;50.898;10.854;2024-01-30T03:16:37;99714.81;;;-2.21;100.00
65897;BME280;52677;50.898;10.854;2024-01-30T03:18:38;99718.06;;;-2.19;100.00
65897;BME280;52677;50.898;10.854;2024-01-30T03:20:38;99712.34;;;-2.22;100.00
65897;BME280;52677;50.898;10.854;2024-01-30T03:22:38;99719.69;;;-2.23;100.00
65897;BME280;52677;50.898;10.854;2024-01-30T03:24:39;99706.13;;;-2.23;100.00
65897;BME280;52677;50.898;10.854;2024-01-30T03:26:39;99720.72;;;-2.24;100.00
65897;BME280;52677;50.898;10.854;2024-01-30T03:28:39;99717.75;;;-2.28;100.00
65897;BME280;52677;50.898;10.854;2024-01-30T03:30:40;99707.16;;;-2.29;100.00
65897;BME280;52677;50.898;10.854;2024-01-30T03:32:40;99704.47;;;-2.29;100.00
65897;BME280;52677;50.898;10.854;2024-01-30T03:34:40;99710.97;;;-2.25;100.00
65897;BME280;52677;50.898;10.854;2024-01-30T03:36:41;99704.22;;;-2.22;100.00
65897;BME280;52677;50.898;10.854;2024-01-30T03:38:41;99700.69;;;-2.18;100.00
65897;BME280;52677;50.898;10.854;2024-01-30T03:40:41;99693.09;;;-2.16;100.00
65897;BME280;52677;50.898;10.854;2024-01-30T03:42:42;99695.59;;;-2.14;100.00
65897;BME280;52677;50.898;10.854;2024-01-30T03:44:42;99700.69;;;-2.18;100.00
65897;BME280;52677;50.898;10.854;2024-01-30T03:46:42;99696.09;;;-2.17;100.00
65897;BME280;52677;50.898;10.854;2024-01-30T03:48:43;99702.88;;;-2.20;100.00
65897;BME280;52677;50.898;10.854;2024-01-30T03:50:43;99696.91;;;-2.22;100.00
65897;BME280;52677;50.898;10.854;2024-01-30T03:52:43;99707.97;;;-2.23;100.00
65897;BME280;52677;50.898;10.854;2024-01-30T03:54:44;99708.84;;;-2.23;100.00
65897;BME280;52677;50.898;10.854;2024-01-30T03:56:44;99703.91;;;-2.26;100.00
65897;BME280;52677;50.898;10.854;2024-01-30T03:58:44;99699.63;;;-2.22;100.00
65897;BME280;52677;50.898;10.854;2024-01-30T04:00:44;99697.44;;;-2.20;100.00
65897;BME280;52677;50.898;10.854;2024-01-30T04:02:45;99686.38;;;-2.13;100.00
65897;BME280;52677;50.898;10.854;2024-01-30T04:04:45;99680.13;;;-2.09;100.00
65897;BME280;52677;50.898;10.854;2024-01-30T04:06:46;99681.50;;;-2.01;100.00
65897;BME280;52677;50.898;10.854;2024-01-30T04:08:46;99681.00;;;-1.98;100.00
65897;BME280;52677;50.898;10.854;2024-01-30T04:10:47;99676.66;;;-1.94;100.00
65897;BME280;52677;50.898;10.854;2024-01-30T04:12:47;99680.72;;;-1.91;100.00
65897;BME280;52677;50.898;10.854;2024-01-30T04:14:47;99681.84;;;-1.87;100.00
65897;BME280;52677;50.898;10.854;2024-01-30T04:16:48;99697.06;;;-1.81;100.00
65897;BME280;52677;50.898;10.854;2024-01-30T04:18:48;99689.50;;;-1.64;100.00
65897;BME280;52677;50.898;10.854;2024-01-30T04:20:49;99697.34;;;-1.73;100.00
65897;BME280;52677;50.898;10.854;2024-01-30T04:22:49;99693.78;;;-1.83;100.00
65897;BME280;52677;50.898;10.854;2024-01-30T04:24:49;99696.19;;;-1.92;100.00
65897;BME280;52677;50.898;10.854;2024-01-30T04:26:50;99689.94;;;-1.98;100.00
65897;BME280;52677;50.898;10.854;2024-01-30T04:28:50;99694.81;;;-2.00;100.00
65897;BME280;52677;50.898;10.854;2024-01-30T04:30:50;99690.72;;;-2.02;100.00
65897;BME280;52677;50.898;10.854;2024-01-30T04:32:51;99696.16;;;-2.02;100.00
65897;BME280;52677;50.898;10.854;2024-01-30T04:34:51;99692.34;;;-2.01;100.00
65897;BME280;52677;50.898;10.854;2024-01-30T04:36:51;99686.66;;;-2.05;100.00
65897;BME280;52677;50.898;10.854;2024-01-30T04:38:52;99696.69;;;-2.05;100.00
65897;BME280;52677;50.898;10.854;2024-01-30T04:40:52;99689.88;;;-2.08;100.00
65897;BME280;52677;50.898;10.854;2024-01-30T04:42:52;99692.88;;;-2.09;100.00
65897;BME280;52677;50.898;10.854;2024-01-30T04:44:53;99692.59;;;-2.08;100.00
65897;BME280;52677;50.898;10.854;2024-01-30T04:46:53;99688.25;;;-2.09;100.00
65897;BME280;52677;50.898;10.854;2024-01-30T04:48:53;99685.03;;;-2.06;100.00
65897;BME280;52677;50.898;10.854;2024-01-30T04:50:54;99693.16;;;-2.06;100.00
65897;BME280;52677;50.898;10.854;2024-01-30T04:52:55;99681.25;;;-2.05;100.00
65897;BME280;52677;50.898;10.854;2024-01-30T04:54:55;99677.72;;;-2.00;100.00
65897;BME280;52677;50.898;10.854;2024-01-30T04:56:55;99683.44;;;-1.96;100.00
65897;BME280;52677;50.898;10.854;2024-01-30T04:58:55;99678.56;;;-1.94;100.00
65897;BME280;52677;50.898;10.854;2024-01-30T05:00:56;99684.78;;;-1.94;100.00
65897;BME280;52677;50.898;10.854;2024-01-30T05:02:56;99694.84;;;-1.89;100.00
65897;BME280;52677;50.898;10.854;2024-01-30T05:04:56;99692.16;;;-1.89;100.00
65897;BME280;52677;50.898;10.854;2024-01-30T05:06:58;99678.28;;;-1.93;100.00
65897;BME280;52677;50.898;10.854;2024-01-30T05:08:58;99681.28;;;-1.94;100.00
65897;BME280;52677;50.898;10.854;2024-01-30T05:11:02;99684.75;;;-1.99;100.00
65897;BME280;52677;50.898;10.854;2024-01-30T05:13:03;99680.16;;;-2.04;100.00
65897;BME280;52677;50.898;10.854;2024-01-30T05:15:04;99679.03;;;-2.08;100.00
65897;BME280;52677;50.898;10.854;2024-01-30T05:17:04;99677.16;;;-2.12;100.00
65897;BME280;52677;50.898;10.854;2024-01-30T05:19:05;99679.03;;;-2.13;100.00
65897;BME280;52677;50.898;10.854;2024-01-30T05:21:05;99681.47;;;-2.11;100.00
65897;BME280;52677;50.898;10.854;2024-01-30T05:23:05;99680.38;;;-2.15;100.00
65897;BME280;52677;50.898;10.854;2024-01-30T05:25:06;99679.28;;;-2.19;100.00
65897;BME280;52677;50.898;10.854;2024-01-30T05:27:06;99682.84;;;-2.14;100.00
65897;BME280;52677;50.898;10.854;2024-01-30T05:29:07;99678.75;;;-2.16;100.00
65897;BME280;52677;50.898;10.854;2024-01-30T05:31:08;99689.59;;;-2.21;100.00
65897;BME280;52677;50.898;10.854;2024-01-30T05:33:08;99677.13;;;-2.22;100.00
65897;BME280;52677;50.898;10.854;2024-01-30T05:35:09;99683.34;;;-2.22;100.00
65897;BME280;52677;50.898;10.854;2024-01-30T05:37:10;99690.66;;;-2.22;100.00
65897;BME280;52677;50.898;10.854;2024-01-30T05:39:14;99694.72;;;-2.20;100.00
65897;BME280;52677;50.898;10.854;2024-01-30T05:41:14;99687.69;;;-2.21;100.00
65897;BME280;52677;50.898;10.854;2024-01-30T05:43:15;99685.47;;;-2.24;100.00
65897;BME280;52677;50.898;10.854;2024-01-30T05:45:15;99677.63;;;-2.26;100.00
65897;BME280;52677;50.898;10.854;2024-01-30T05:47:15;99675.44;;;-2.23;100.00
65897;BME280;52677;50.898;10.854;2024-01-30T05:49:16;99683.88;;;-2.20;100.00
65897;BME280;52677;50.898;10.854;2024-01-30T05:51:16;99677.94;;;-2.17;100.00
65897;BME280;52677;50.898;10.854;2024-01-30T05:53:16;99682.81;;;-2.19;100.00
65897;BME280;52677;50.898;10.854;2024-01-30T05:55:16;99681.72;;;-2.23;100.00
65897;BME280;52677;50.898;10.854;2024-01-30T05:57:17;99686.84;;;-2.27;100.00
65897;BME280;52677;50.898;10.854;2024-01-30T05:59:18;99686.84;;;-2.27;100.00
65897;BME280;52677;50.898;10.854;2024-01-30T06:01:18;99687.91;;;-2.28;100.00
65897;BME280;52677;50.898;10.854;2024-01-30T06:03:18;99689.00;;;-2.29;100.00
65897;BME280;52677;50.898;10.854;2024-01-30T06:05:19;99683.28;;;-2.32;100.00
65897;BME280;52677;50.898;10.854;2024-01-30T06:07:19;99685.72;;;-2.36;100.00
65897;BME280;52677;50.898;10.854;2024-01-30T06:09:19;99692.50;;;-2.38;100.00
65897;BME280;52677;50.898;10.854;2024-01-30T06:11:20;99682.97;;;-2.41;100.00
65897;BME280;52677;50.898;10.854;2024-01-30T06:13:20;99684.31;;;-2.43;100.00
65897;BME280;52677;50.898;10.854;2024-01-30T06:15:20;99684.31;;;-2.43;100.00
65897;BME280;52677;50.898;10.854;2024-01-30T06:17:20;99679.94;;;-2.49;100.00
65897;BME280;52677;50.898;10.854;2024-01-30T06:19:21;99684.03;;;-2.47;100.00
65897;BME280;52677;50.898;10.854;2024-01-30T06:21:21;99674.78;;;-2.51;100.00
65897;BME280;52677;50.898;10.854;2024-01-30T06:23:22;99678.84;;;-2.48;100.00
65897;BME280;52677;50.898;10.854;2024-01-30T06:25:22;99673.97;;;-2.51;100.00
65897;BME280;52677;50.898;10.854;2024-01-30T06:27:22;99679.41;;;-2.51;100.00
65897;BME280;52677;50.898;10.854;2024-01-30T06:29:23;99670.69;;;-2.59;100.00
65897;BME280;52677;50.898;10.854;2024-01-30T06:31:24;99668.50;;;-2.57;100.00
65897;BME280;52677;50.898;10.854;2024-01-30T06:33:25;99682.91;;;-2.56;100.00
65897;BME280;52677;50.898;10.854;2024-01-30T06:35:25;99669.88;;;-2.59;100.00
65897;BME280;52677;50.898;10.854;2024-01-30T06:37:25;99671.50;;;-2.58;100.00
65897;BME280;52677;50.898;10.854;2024-01-30T06:39:26;99682.91;;;-2.56;100.00
65897;BME280;52677;50.898;10.854;2024-01-30T06:41:27;99670.41;;;-2.57;100.00
65897;BME280;52677;50.898;10.854;2024-01-30T06:43:27;99678.84;;;-2.53;100.00
65897;BME280;52677;50.898;10.854;2024-01-30T06:45:27;99675.31;;;-2.54;100.00
65897;BME280;52677;50.898;10.854;2024-01-30T06:47:27;99683.47;;;-2.54;100.00
65897;BME280;52677;50.898;10.854;2024-01-30T06:49:29;99680.19;;;-2.56;100.00
65897;BME280;52677;50.898;10.854;2024-01-30T06:51:29;99677.22;;;-2.55;100.00
65897;BME280;52677;50.898;10.854;2024-01-30T06:53:30;99669.91;;;-2.54;100.00
65897;BME280;52677;50.898;10.854;2024-01-30T06:55:30;99674.78;;;-2.51;100.00
65897;BME280;52677;50.898;10.854;2024-01-30T06:57:30;99680.19;;;-2.56;100.00
65897;BME280;52677;50.898;10.854;2024-01-30T06:59:31;99679.91;;;-2.60;100.00
65897;BME280;52677;50.898;10.854;2024-01-30T07:01:31;99686.13;;;-2.59;100.00
65897;BME280;52677;50.898;10.854;2024-01-30T07:03:32;99687.22;;;-2.60;100.00
65897;BME280;52677;50.898;10.854;2024-01-30T07:05:32;99679.63;;;-2.58;100.00
65897;BME280;52677;50.898;10.854;2024-01-30T07:07:33;99682.91;;;-2.56;100.00
65897;BME280;52677;50.898;10.854;2024-01-30T07:09:33;99680.75;;;-2.54;100.00
65897;BME280;52677;50.898;10.854;2024-01-30T07:11:34;99685.91;;;-2.52;100.00
65897;BME280;52677;50.898;10.854;2024-01-30T07:13:34;99686.97;;;-2.53;100.00
65897;BME280;52677;50.898;10.854;2024-01-30T07:15:35;99682.97;;;-2.46;100.00
65897;BME280;52677;50.898;10.854;2024-01-30T07:17:36;99682.72;;;-2.34;100.00
65897;BME280;52677;50.898;10.854;2024-01-30T07:19:37;99688.72;;;-2.27;100.00
65897;BME280;52677;50.898;10.854;2024-01-30T07:21:37;99690.97;;;-2.14;100.00
65897;BME280;52677;50.898;10.854;2024-01-30T07:23:40;99684.78;;;-2.04;100.00
65897;BME280;52677;50.898;10.854;2024-01-30T07:25:42;99684.25;;;-1.96;100.00
65897;BME280;52677;50.898;10.854;2024-01-30T07:27:42;99682.91;;;-1.93;100.00
65897;BME280;52677;50.898;10.854;2024-01-30T07:29:43;99683.72;;;-1.93;100.00
65897;BME280;52677;50.898;10.854;2024-01-30T07:31:43;99678.00;;;-1.91;100.00
65897;BME280;52677;50.898;10.854;2024-01-30T07:33:43;99687.50;;;-1.94;100.00
65897;BME280;52677;50.898;10.854;2024-01-30T07:35:45;99691.03;;;-1.93;100.00
65897;BME280;52677;50.898;10.854;2024-01-30T07:37:46;99683.16;;;-1.95;100.00
65897;BME280;52677;50.898;10.854;2024-01-30T07:39:47;99689.13;;;-1.93;100.00
65897;BME280;52677;50.898;10.854;2024-01-30T07:41:47;99687.50;;;-1.94;100.00
65897;BME280;52677;50.898;10.854;2024-01-30T07:43:47;99690.22;;;-1.94;100.00
65897;BME280;52677;50.898;10.854;2024-01-30T07:45:48;99684.53;;;-1.92;100.00
65897;BME280;52677;50.898;10.854;2024-01-30T07:47:49;99686.16;;;-1.91;100.00
65897;BME280;52677;50.898;10.854;2024-01-30T07:49:49;99695.41;;;-1.87;100.00
65897;BME280;52677;50.898;10.854;2024-01-30T07:51:50;99688.34;;;-1.88;100.00
65897;BME280;52677;50.898;10.854;2024-01-30T07:53:50;99693.78;;;-1.83;100.00
65897;BME280;52677;50.898;10.854;2024-01-30T07:55:50;99692.44;;;-1.81;100.00
65897;BME280;52677;50.898;10.854;2024-01-30T07:57:52;99685.94;;;-1.80;100.00
65897;BME280;52677;50.898;10.854;2024-01-30T07:59:52;99685.69;;;-1.73;100.00
65897;BME280;52677;50.898;10.854;2024-01-30T08:01:52;99688.13;;;-1.72;100.00
65897;BME280;52677;50.898;10.854;2024-01-30T08:03:53;99688.66;;;-1.70;100.00
65897;BME280;52677;50.898;10.854;2024-01-30T08:05:53;99692.72;;;-1.67;100.00
65897;BME280;52677;50.898;10.854;2024-01-30T08:07:53;99682.97;;;-1.63;100.00
65897;BME280;52677;50.898;10.854;2024-01-30T08:09:54;99694.13;;;-1.54;100.00
65897;BME280;52677;50.898;10.854;2024-01-30T08:11:54;99690.31;;;-1.53;100.00
65897;BME280;52677;50.898;10.854;2024-01-30T08:13:55;99681.91;;;-1.52;100.00
65897;BME280;52677;50.898;10.854;2024-01-30T08:15:55;99678.66;;;-1.49;100.00
65897;BME280;52677;50.898;10.854;2024-01-30T08:17:55;99680.03;;;-1.46;100.00
65897;BME280;52677;50.898;10.854;2024-01-30T08:19:58;99684.91;;;-1.43;100.00
65897;BME280;52677;50.898;10.854;2024-01-30T08:21:58;99680.56;;;-1.39;100.00
65897;BME280;52677;50.898;10.854;2024-01-30T08:23:58;99678.13;;;-1.35;100.00
65897;BME280;52677;50.898;10.854;2024-01-30T08:25:59;99688.19;;;-1.31;100.00
65897;BME280;52677;50.898;10.854;2024-01-30T08:27:59;99688.16;;;-1.26;100.00
65897;BME280;52677;50.898;10.854;2024-01-30T08:30:00;99683.00;;;-1.17;100.00
65897;BME280;52677;50.898;10.854;2024-01-30T08:32:00;99687.09;;;-1.15;100.00
65897;BME280;52677;50.898;10.854;2024-01-30T08:34:00;99681.94;;;-1.06;100.00
65897;BME280;52677;50.898;10.854;2024-01-30T08:36:01;99685.72;;;-1.02;100.00
65897;BME280;52677;50.898;10.854;2024-01-30T08:38:01;99684.38;;;-0.94;100.00
65897;BME280;52677;50.898;10.854;2024-01-30T08:40:01;99685.19;;;-0.94;100.00
65897;BME280;52677;50.898;10.854;2024-01-30T08:42:03;99688.19;;;-0.90;100.00
65897;BME280;52677;50.898;10.854;2024-01-30T08:44:04;99682.19;;;-0.87;100.00
65897;BME280;52677;50.898;10.854;2024-01-30T08:46:04;99681.09;;;-0.81;100.00
65897;BME280;52677;50.898;10.854;2024-01-30T08:48:05;99683.78;;;-0.76;100.00
65897;BME280;52677;50.898;10.854;2024-01-30T08:50:06;99674.84;;;-0.71;100.00
65897;BME280;52677;50.898;10.854;2024-01-30T08:52:06;99668.56;;;-0.62;100.00
65897;BME280;52677;50.898;10.854;2024-01-30T08:54:07;99678.06;;;-0.54;100.00
65897;BME280;52677;50.898;10.854;2024-01-30T08:56:07;99667.19;;;-0.54;100.00
65897;BME280;52677;50.898;10.854;2024-01-30T08:58:07;99675.06;;;-0.52;100.00
65897;BME280;52677;50.898;10.854;2024-01-30T09:00:08;99668.81;;;-0.48;100.00
65897;BME280;52677;50.898;10.854;2024-01-30T09:02:10;99661.16;;;-0.41;100.00
65897;BME280;52677;50.898;10.854;2024-01-30T09:04:12;99669.06;;;-0.39;100.00
65897;BME280;52677;50.898;10.854;2024-01-30T09:06:12;99666.03;;;-0.38;100.00
65897;BME280;52677;50.898;10.854;2024-01-30T09:08:13;99666.56;;;-0.36;100.00
65897;BME280;52677;50.898;10.854;2024-01-30T09:10:13;99663.03;;;-0.31;100.00
65897;BME280;52677;50.898;10.854;2024-01-30T09:12:14;99665.47;;;-0.30;100.00
65897;BME280;52677;50.898;10.854;2024-01-30T09:14:14;99667.09;;;-0.23;100.00
65897;BME280;52677;50.898;10.854;2024-01-30T09:16:15;99655.34;;;-0.19;100.00
65897;BME280;52677;50.898;10.854;2024-01-30T09:18:16;99661.88;;;-0.15;100.00
65897;BME280;52677;50.898;10.854;2024-01-30T09:20:16;99661.03;;;-0.05;100.00
65897;BME280;52677;50.898;10.854;2024-01-30T09:22:16;99664.56;;;-0.05;100.00
65897;BME280;52677;50.898;10.854;2024-01-30T09:24:17;99667.00;;;-0.03;100.00
65897;BME280;52677;50.898;10.854;2024-01-30T09:26:17;99662.34;;;-0.03;100.00
65897;BME280;52677;50.898;10.854;2024-01-30T09:28:17;99671.06;;;-0.01;100.00
65897;BME280;52677;50.898;10.854;2024-01-30T09:30:18;99656.63;;;0.04;100.00
65897;BME280;52677;50.898;10.854;2024-01-30T09:32:18;99663.69;;;0.05;100.00
65897;BME280;52677;50.898;10.854;2024-01-30T09:34:18;99673.75;;;0.10;100.00
65897;BME280;52677;50.898;10.854;2024-01-30T09:36:19;99660.66;;;0.12;100.00
65897;BME280;52677;50.898;10.854;2024-01-30T09:38:20;99672.59;;;0.16;100.00
65897;BME280;52677;50.898;10.854;2024-01-30T09:40:21;99668.25;;;0.20;100.00
65897;BME280;52677;50.898;10.854;2024-01-30T09:42:34;99665.53;;;0.20;100.00
65897;BME280;52677;50.898;10.854;2024-01-30T09:44:38;99676.91;;;0.27;100.00
65897;BME280;52677;50.898;10.854;2024-01-30T09:46:38;99676.34;;;0.30;100.00
65897;BME280;52677;50.898;10.854;2024-01-30T09:48:41;99671.69;;;0.36;100.00
65897;BME280;52677;50.898;10.854;2024-01-30T09:50:42;99681.72;;;0.40;100.00
65897;BME280;52677;50.898;10.854;2024-01-30T09:52:44;99673.28;;;0.42;100.00
65897;BME280;52677;50.898;10.854;2024-01-30T09:54:45;99678.41;;;0.48;100.00
65897;BME280;52677;50.898;10.854;2024-01-30T09:56:45;99676.22;;;0.50;100.00
65897;BME280;52677;50.898;10.854;2024-01-30T09:58:47;99674.56;;;0.54;100.00
65897;BME280;52677;50.898;10.854;2024-01-30T10:00:48;99674.81;;;0.58;100.00
65897;BME280;52677;50.898;10.854;2024-01-30T10:02:49;99676.91;;;0.66;100.00
65897;BME280;52677;50.898;10.854;2024-01-30T10:04:50;99676.06;;;0.71;100.00
65897;BME280;52677;50.898;10.854;2024-01-30T10:06:51;99677.38;;;0.78;100.00
65897;BME280;52677;50.898;10.854;2024-01-30T10:08:51;99674.63;;;0.83;100.00
65897;BME280;52677;50.898;10.854;2024-01-30T10:10:52;99676.19;;;0.90;100.00
65897;BME280;52677;50.898;10.854;2024-01-30T10:12:52;99681.09;;;0.93;100.00
65897;BME280;52677;50.898;10.854;2024-01-30T10:14:52;99673.72;;;0.93;100.00
65897;BME280;52677;50.898;10.854;2024-01-30T10:16:55;99674.47;;;0.99;100.00
65897;BME280;52677;50.898;10.854;2024-01-30T10:18:55;99675.53;;;1.03;100.00
65897;BME280;52677;50.898;10.854;2024-01-30T10:20:55;99672.78;;;1.08;100.00
65897;BME280;52677;50.898;10.854;2024-01-30T10:22:56;99669.19;;;1.12;100.00